Time;durP1;ratioP1;P1;durP2;ratioP2;P2;SDS_P1;SDS_P2;PMS_P1;PMS_P2;Temp;Humidity;BMP_temperature;BMP_pressure;BME280_temperature;BME280_humidity;BME280_pressure;Samples;Min_cycle;Max_cycle;Signal;HPM_P1;HPM_P2
2022/10/06 00:02:10;;;;;;;3.15;0.90;;;18.50;67.00;;;;;;5052340;28;20217;-55
2022/10/06 00:04:36;;;;;;;1.17;0.95;;;18.50;67.00;;;;;;5052438;28;20554;-57
2022/10/06 00:07:01;;;;;;;1.95;1.20;;;18.50;66.90;;;;;;5051950;28;20178;-57
2022/10/06 00:09:27;;;;;;;1.77;1.10;;;18.50;67.00;;;;;;5052561;28;20225;-56
2022/10/06 00:11:52;;;;;;;2.65;1.00;;;18.50;67.80;;;;;;5052847;28;20203;-57
2022/10/06 00:14:18;;;;;;;1.15;0.90;;;18.50;67.00;;;;;;5051657;28;20315;-55
2022/10/06 00:16:43;;;;;;;2.00;1.20;;;18.50;67.00;;;;;;5052885;28;20254;-55
2022/10/06 00:19:09;;;;;;;1.10;0.90;;;18.50;67.00;;;;;;5051782;28;20270;-54
2022/10/06 00:21:34;;;;;;;1.38;0.90;;;18.40;67.00;;;;;;5052835;28;20313;-56
2022/10/06 00:24:01;;;;;;;1.17;0.93;;;18.50;67.00;;;;;;5052432;28;20257;-54
2022/10/06 00:26:26;;;;;;;0.90;0.82;;;18.40;66.90;;;;;;5052097;28;20171;-56
2022/10/06 00:28:52;;;;;;;1.42;1.00;;;18.40;66.90;;;;;;5052789;28;20206;-54
2022/10/06 00:31:18;;;;;;;1.10;1.00;;;18.40;66.90;;;;;;5052531;28;20183;-55
2022/10/06 00:33:44;;;;;;;0.80;0.70;;;18.40;67.10;;;;;;5051927;28;20225;-57
2022/10/06 00:36:09;;;;;;;0.95;0.88;;;18.40;66.90;;;;;;5052438;28;20182;-56
2022/10/06 00:38:35;;;;;;;1.52;1.10;;;18.40;67.90;;;;;;5052492;28;20175;-57
2022/10/06 00:41:00;;;;;;;0.90;0.70;;;18.40;66.90;;;;;;5051661;28;20175;-56
2022/10/06 00:43:48;;;;;;;1.58;0.90;;;18.40;66.90;;;;;;5052644;28;20179;-53
2022/10/06 00:46:15;;;;;;;1.42;1.33;;;18.40;66.90;;;;;;5052257;28;20183;-55
2022/10/06 00:48:41;;;;;;;9.75;1.20;;;18.40;66.90;;;;;;5051694;28;20210;-56
2022/10/06 00:51:07;;;;;;;2.13;0.90;;;18.40;67.10;;;;;;5034481;28;20525;-55
2022/10/06 00:53:32;;;;;;;1.15;0.82;;;18.40;67.00;;;;;;5051446;28;20186;-54
2022/10/06 00:55:58;;;;;;;1.15;1.00;;;18.40;67.10;;;;;;5051608;28;20171;-55
2022/10/06 00:58:24;;;;;;;1.30;1.20;;;18.40;67.30;;;;;;5052499;28;20179;-55
2022/10/06 01:00:52;;;;;;;1.17;1.00;;;18.40;67.00;;;;;;5052481;28;20173;-56
2022/10/06 01:03:23;;;;;;;1.17;0.85;;;18.40;67.00;;;;;;5050080;28;20551;-52
2022/10/06 01:05:49;;;;;;;0.90;0.90;;;18.40;67.20;;;;;;5034824;28;20191;-57
2022/10/06 01:08:14;;;;;;;1.45;0.82;;;18.40;67.20;;;;;;5033916;28;20211;-53
2022/10/06 01:10:40;;;;;;;3.50;0.90;;;18.40;67.00;;;;;;5051160;28;20197;-57
2022/10/06 01:13:06;;;;;;;1.15;0.80;;;18.40;67.20;;;;;;5051915;28;20697;-56
2022/10/06 01:15:32;;;;;;;1.05;0.80;;;18.40;67.00;;;;;;5051232;28;20661;-55
2022/10/06 01:18:01;;;;;;;3.88;1.08;;;18.40;67.40;;;;;;5054607;28;20186;-54
2022/10/06 01:20:28;;;;;;;1.20;0.80;;;18.40;67.10;;;;;;5038243;28;20638;-56
2022/10/06 01:23:01;;;;;;;1.33;1.00;;;18.40;67.10;;;;;;5053838;28;20633;-56
2022/10/06 01:25:27;;;;;;;1.35;0.90;;;18.40;67.10;;;;;;5054782;28;20219;-53
2022/10/06 01:27:53;;;;;;;1.27;0.90;;;18.40;67.00;;;;;;5054494;28;20731;-56
2022/10/06 01:30:27;;;;;;;1.55;0.88;;;18.40;67.20;;;;;;5053600;28;20182;-55
2022/10/06 01:32:53;;;;;;;0.90;0.80;;;18.40;67.10;;;;;;5038701;28;20179;-57
2022/10/06 01:35:19;;;;;;;1.02;0.90;;;18.40;67.50;;;;;;5037759;28;20230;-56
2022/10/06 01:37:44;;;;;;;1.30;0.90;;;18.40;67.10;;;;;;5054943;28;20175;-56
2022/10/06 01:40:10;;;;;;;1.90;0.90;;;18.40;67.30;;;;;;5055405;28;20217;-55
2022/10/06 01:42:35;;;;;;;0.82;0.70;;;18.40;67.10;;;;;;5055493;28;20179;-56
2022/10/06 01:45:02;;;;;;;2.10;1.10;;;18.40;67.30;;;;;;5054315;28;20379;-55
2022/10/06 01:47:27;;;;;;;1.33;0.98;;;18.30;67.20;;;;;;5055427;28;20642;-55
2022/10/06 01:49:53;;;;;;;2.08;0.93;;;18.40;67.40;;;;;;5055274;28;20179;-56
2022/10/06 01:52:19;;;;;;;0.95;0.90;;;18.40;67.10;;;;;;5054426;28;20183;-53
2022/10/06 01:54:44;;;;;;;4.40;1.10;;;18.40;67.30;;;;;;5055185;28;20636;-56
2022/10/06 01:57:10;;;;;;;0.88;0.70;;;18.30;67.20;;;;;;5055030;28;20179;-56
2022/10/06 01:59:35;;;;;;;0.70;0.70;;;18.30;67.10;;;;;;5054497;28;20185;-56
2022/10/06 02:02:01;;;;;;;0.77;0.77;;;18.40;67.30;;;;;;5054730;28;20175;-56
2022/10/06 02:04:27;;;;;;;1.05;0.80;;;18.30;67.20;;;;;;5055214;28;20171;-56
2022/10/06 02:06:54;;;;;;;1.88;1.10;;;18.30;67.30;;;;;;5054533;28;20172;-57
2022/10/06 02:09:22;;;;;;;1.73;0.95;;;18.30;67.20;;;;;;5054717;28;20218;-56
2022/10/06 02:11:48;;;;;;;0.77;0.70;;;18.30;67.10;;;;;;5054270;28;20257;-57
2022/10/06 02:14:13;;;;;;;2.85;1.08;;;18.30;67.30;;;;;;5054435;28;20310;-55
2022/10/06 02:16:39;;;;;;;2.40;0.88;;;18.30;67.00;;;;;;5055003;28;20554;-56
2022/10/06 02:19:05;;;;;;;1.35;1.00;;;18.30;66.90;;;;;;5054143;28;20691;-55
2022/10/06 02:21:31;;;;;;;1.00;0.88;;;18.30;67.00;;;;;;5054802;28;20182;-52
2022/10/06 02:23:56;;;;;;;1.10;1.00;;;18.30;67.10;;;;;;5054870;28;20183;-54
2022/10/06 02:26:22;;;;;;;1.55;0.90;;;18.30;67.00;;;;;;5053778;28;20186;-54
2022/10/06 02:28:48;;;;;;;2.42;1.10;;;18.30;67.00;;;;;;5054493;28;20573;-55
2022/10/06 02:31:14;;;;;;;3.35;1.00;;;18.30;67.00;;;;;;5054283;28;20254;-55
2022/10/06 02:33:39;;;;;;;1.52;0.82;;;18.30;67.20;;;;;;5053796;28;20313;-54
2022/10/06 02:36:06;;;;;;;3.90;1.23;;;18.30;67.00;;;;;;5054079;28;20187;-55
2022/10/06 02:38:31;;;;;;;0.80;0.70;;;18.30;67.00;;;;;;5054465;28;20186;-56
2022/10/06 02:40:58;;;;;;;1.23;1.00;;;18.30;67.00;;;;;;5053390;28;20175;-55
2022/10/06 02:43:25;;;;;;;2.63;1.10;;;18.30;67.00;;;;;;5054356;28;20175;-56
2022/10/06 02:45:58;;;;;;;1.17;0.90;;;18.30;67.10;;;;;;5054119;28;20631;-56
2022/10/06 02:48:24;;;;;;;2.13;1.27;;;18.30;67.20;;;;;;5053564;28;20318;-53
2022/10/06 02:50:57;;;;;;;2.40;0.90;;;18.30;67.10;;;;;;5054543;28;20685;-53
2022/10/06 02:53:24;;;;;;;1.42;0.85;;;18.30;67.20;;;;;;5054151;28;20217;-54
2022/10/06 02:55:55;;;;;;;3.40;1.13;;;18.30;67.10;;;;;;5053552;28;20175;-56
2022/10/06 02:58:21;;;;;;;1.52;0.95;;;18.30;67.00;;;;;;5054221;28;20355;-55
2022/10/06 03:00:46;;;;;;;1.45;0.80;;;18.30;67.10;;;;;;5053504;28;20687;-58
2022/10/06 03:03:12;;;;;;;2.05;1.10;;;18.20;67.00;;;;;;5053606;28;20580;-55
2022/10/06 03:05:37;;;;;;;1.67;1.08;;;18.20;67.00;;;;;;5053956;28;20638;-56
2022/10/06 03:08:03;;;;;;;1.58;1.02;;;18.30;67.10;;;;;;5052661;28;20233;-56
2022/10/06 03:10:28;;;;;;;1.20;0.90;;;18.20;66.90;;;;;;5053746;28;20217;-55
2022/10/06 03:12:54;;;;;;;1.50;1.10;;;18.30;67.10;;;;;;5053499;28;20223;-56
2022/10/06 03:15:20;;;;;;;3.30;1.23;;;18.30;67.10;;;;;;5052843;28;20190;-56
2022/10/06 03:17:48;;;;;;;1.02;0.77;;;18.20;67.00;;;;;;5053885;28;20171;-56
2022/10/06 03:20:14;;;;;;;1.77;1.00;;;18.20;66.90;;;;;;5053313;28;20644;-55
2022/10/06 03:22:40;;;;;;;2.30;0.90;;;18.20;66.80;;;;;;5052859;28;20174;-55
2022/10/06 03:25:06;;;;;;;2.20;0.73;;;18.20;66.70;;;;;;5053228;28;20527;-55
2022/10/06 03:27:31;;;;;;;2.05;1.17;;;18.20;67.00;;;;;;5053337;28;20194;-54
2022/10/06 03:29:57;;;;;;;1.65;0.82;;;18.20;66.80;;;;;;5052411;28;20210;-56
2022/10/06 03:32:22;;;;;;;2.20;0.90;;;18.20;67.00;;;;;;5053536;28;20182;-54
2022/10/06 03:34:48;;;;;;;3.03;1.20;;;18.20;66.80;;;;;;5053481;28;20179;-57
2022/10/06 03:37:14;;;;;;;1.35;0.95;;;18.20;67.00;;;;;;5052420;28;20198;-57
2022/10/06 03:39:39;;;;;;;2.92;1.30;;;18.20;66.80;;;;;;5052598;28;20185;-56
2022/10/06 03:42:05;;;;;;;1.83;0.90;;;18.20;66.80;;;;;;5052810;28;20301;-55
2022/10/06 03:44:33;;;;;;;2.47;1.17;;;18.20;67.20;;;;;;5052574;28;20305;-56
2022/10/06 03:46:59;;;;;;;1.25;1.13;;;18.20;66.70;;;;;;5053026;28;20230;-56
2022/10/06 03:49:24;;;;;;;2.00;1.02;;;18.20;66.70;;;;;;5053188;28;20246;-56
2022/10/06 03:51:50;;;;;;;1.70;0.80;;;18.10;66.80;;;;;;5052312;28;20626;-56
2022/10/06 03:54:15;;;;;;;2.15;0.73;;;18.20;66.80;;;;;;5052752;28;20179;-55
2022/10/06 03:56:41;;;;;;;2.60;1.02;;;18.20;66.80;;;;;;5052950;28;20168;-55
2022/10/06 03:59:09;;;;;;;2.22;1.10;;;18.20;66.70;;;;;;5052183;28;20175;-55
2022/10/06 04:01:36;;;;;;;2.92;1.38;;;18.20;66.80;;;;;;5053134;28;20188;-56
2022/10/06 04:04:02;;;;;;;1.35;1.02;;;18.20;66.90;;;;;;5052674;28;20179;-57
2022/10/06 04:06:28;;;;;;;1.27;0.80;;;18.20;66.80;;;;;;5052381;28;20177;-56
2022/10/06 04:08:54;;;;;;;1.42;0.70;;;18.20;66.80;;;;;;5052733;28;20300;-57
2022/10/06 04:11:21;;;;;;;2.15;0.80;;;18.20;66.80;;;;;;5051795;28;20207;-57
2022/10/06 04:13:47;;;;;;;2.05;1.02;;;18.20;66.80;;;;;;5052766;28;20733;-56
2022/10/06 04:16:17;;;;;;;1.95;0.90;;;18.20;66.80;;;;;;5052590;28;20199;-57
2022/10/06 04:18:43;;;;;;;1.42;0.88;;;18.20;66.80;;;;;;5052198;28;20236;-55
2022/10/06 04:21:08;;;;;;;2.10;1.05;;;18.20;66.80;;;;;;5052571;28;20171;-56
2022/10/06 04:23:35;;;;;;;1.50;0.85;;;18.20;67.00;;;;;;5052726;28;20331;-57
2022/10/06 04:26:01;;;;;;;2.38;1.15;;;18.10;66.70;;;;;;5051851;28;20221;-53
2022/10/06 04:28:28;;;;;;;1.58;0.80;;;18.20;66.80;;;;;;5052698;28;20207;-57
2022/10/06 04:30:57;;;;;;;1.70;1.15;;;18.10;66.80;;;;;;5052736;28;20179;-56
2022/10/06 04:33:23;;;;;;;2.35;1.20;;;18.10;66.70;;;;;;5051939;28;20183;-56
2022/10/06 04:35:56;;;;;;;1.85;0.95;;;18.10;66.70;;;;;;5052697;28;20521;-59
2022/10/06 04:38:22;;;;;;;1.25;0.82;;;18.10;66.90;;;;;;5052734;28;20182;-52
2022/10/06 04:40:47;;;;;;;2.22;1.02;;;18.10;67.00;;;;;;5051809;28;20171;-57
2022/10/06 04:43:13;;;;;;;1.70;1.05;;;18.10;66.80;;;;;;5052357;28;20175;-51
2022/10/06 04:45:39;;;;;;;1.90;1.10;;;18.10;66.90;;;;;;5052598;28;20175;-56
2022/10/06 04:48:04;;;;;;;1.75;0.95;;;18.10;66.80;;;;;;5051350;28;20573;-56
2022/10/06 04:50:30;;;;;;;2.78;0.77;;;18.10;67.00;;;;;;5054491;28;20171;-56
2022/10/06 04:52:55;;;;;;;1.92;1.00;;;18.20;66.80;;;;;;5056202;28;20648;-54
2022/10/06 04:55:21;;;;;;;2.22;0.90;;;18.10;67.00;;;;;;5055705;28;20175;-54
2022/10/06 04:57:46;;;;;;;2.03;1.20;;;18.10;66.80;;;;;;5056423;28;20534;-55
2022/10/06 05:00:25;;;;;;;2.22;1.10;;;18.10;66.70;;;;;;5055966;28;20258;-54
2022/10/06 05:02:56;;;;;;;1.20;1.00;;;18.10;66.80;;;;;;5056309;28;20183;-54
2022/10/06 05:05:22;;;;;;;1.50;1.00;;;18.10;66.70;;;;;;5056040;28;20668;-57
2022/10/06 05:07:47;;;;;;;1.70;1.08;;;18.10;67.00;;;;;;5055447;28;20302;-56
2022/10/06 05:10:13;;;;;;;1.00;0.90;;;18.10;66.70;;;;;;5055832;28;20228;-57
2022/10/06 05:12:38;;;;;;;2.17;1.15;;;18.10;67.00;;;;;;5056010;28;20333;-57
2022/10/06 05:15:04;;;;;;;2.78;1.00;;;18.10;66.80;;;;;;5055144;28;20510;-56
2022/10/06 05:17:30;;;;;;;2.95;1.38;;;18.10;66.70;;;;;;5055907;28;20637;-55
2022/10/06 05:19:55;;;;;;;2.17;0.90;;;18.10;66.70;;;;;;5055781;28;20175;-56
2022/10/06 05:22:21;;;;;;;1.25;0.88;;;18.10;66.70;;;;;;5055066;28;20182;-56
2022/10/06 05:24:49;;;;;;;1.88;0.95;;;18.10;66.80;;;;;;5055669;28;20182;-57
2022/10/06 05:27:15;;;;;;;1.45;0.80;;;18.10;66.80;;;;;;5055630;28;20167;-56
2022/10/06 05:29:40;;;;;;;1.75;0.88;;;18.10;66.70;;;;;;5054996;28;20336;-57
2022/10/06 05:32:06;;;;;;;2.10;1.20;;;18.10;66.80;;;;;;5055551;28;20572;-56
2022/10/06 05:34:31;;;;;;;1.85;0.82;;;18.10;66.60;;;;;;5055462;28;20550;-56
2022/10/06 05:36:57;;;;;;;2.30;1.10;;;18.10;66.70;;;;;;5054375;28;20174;-56
2022/10/06 05:39:22;;;;;;;1.77;0.98;;;18.10;66.70;;;;;;5055523;28;20179;-56
2022/10/06 05:41:48;;;;;;;2.67;1.30;;;18.10;66.70;;;;;;5055488;28;20175;-57
2022/10/06 05:44:14;;;;;;;2.17;1.10;;;18.10;66.70;;;;;;5054543;28;20262;-57
2022/10/06 05:46:39;;;;;;;2.08;1.20;;;18.10;66.70;;;;;;5055337;28;20604;-56
2022/10/06 05:49:09;;;;;;;1.85;0.93;;;18.10;66.70;;;;;;5054772;28;20214;-55
2022/10/06 05:51:35;;;;;;;2.17;0.93;;;18.00;66.70;;;;;;5054586;28;20660;-56
2022/10/06 05:54:00;;;;;;;1.67;0.93;;;18.10;66.70;;;;;;5054978;28;20182;-56
2022/10/06 05:56:28;;;;;;;2.15;1.00;;;18.00;66.90;;;;;;5055357;28;20183;-53
2022/10/06 05:58:54;;;;;;;2.03;1.00;;;18.10;66.60;;;;;;5054574;28;20625;-56
2022/10/06 06:01:20;;;;;;;2.53;0.85;;;18.00;66.60;;;;;;5054006;28;20668;-57
2022/10/06 06:03:47;;;;;;;1.70;1.23;;;18.00;66.60;;;;;;5054238;28;20167;-56
2022/10/06 06:06:27;;;;;;;3.45;1.17;;;18.00;66.80;;;;;;5054740;28;20650;-56
2022/10/06 06:09:05;;;;;;;1.63;1.00;;;18.00;66.60;;;;;;5055055;28;20246;-57
2022/10/06 06:11:31;;;;;;;1.60;1.00;;;18.00;66.60;;;;;;5054336;28;20202;-56
2022/10/06 06:13:58;;;;;;;1.80;0.90;;;18.00;66.50;;;;;;5054408;28;20254;-57
2022/10/06 06:16:24;;;;;;;2.20;1.00;;;18.00;66.50;;;;;;5054799;28;20195;-56
2022/10/06 06:18:49;;;;;;;1.58;0.80;;;18.00;66.60;;;;;;5054180;28;20237;-57
2022/10/06 06:21:15;;;;;;;3.83;1.30;;;18.00;66.60;;;;;;5054345;28;20259;-57
2022/10/06 06:23:43;;;;;;;2.05;1.20;;;18.00;66.60;;;;;;5054846;28;20186;-56
2022/10/06 06:26:10;;;;;;;1.45;0.90;;;18.00;66.50;;;;;;5053832;28;20205;-61
2022/10/06 06:28:35;;;;;;;2.60;1.10;;;18.00;66.50;;;;;;5054730;28;20250;-56
2022/10/06 06:31:12;;;;;;;2.88;1.10;;;18.00;66.60;;;;;;5054403;28;20575;-56
2022/10/06 06:33:39;;;;;;;2.25;1.02;;;18.00;66.60;;;;;;5054004;28;20175;-56
2022/10/06 06:36:39;;;;;;;1.75;0.90;;;18.00;66.50;;;;;;5054265;28;20236;-55
2022/10/06 06:39:09;;;;;;;3.72;1.10;;;18.00;66.50;;;;;;5053540;28;20174;-67
2022/10/06 06:41:39;;;;;;;2.60;1.08;;;18.00;66.40;;;;;;5054215;28;20669;-69
2022/10/06 06:44:06;;;;;;;2.05;1.17;;;18.00;66.30;;;;;;5053884;28;20570;-69
2022/10/06 06:46:32;;;;;;;1.48;0.95;;;18.10;66.30;;;;;;5053621;28;20187;-71
2022/10/06 06:49:03;;;;;;;6.68;1.50;;;18.10;66.20;;;;;;5053924;28;20293;-66
2022/10/06 06:51:29;;;;;;;3.38;1.20;;;18.10;66.50;;;;;;5054102;28;20535;-65
2022/10/06 06:53:54;;;;;;;4.32;1.40;;;18.20;67.40;;;;;;5053588;28;20580;-65
2022/10/06 06:56:20;;;;;;;5.03;1.45;;;18.20;66.30;;;;;;5053979;28;20694;-66
2022/10/06 06:58:46;;;;;;;6.32;1.27;;;18.30;66.30;;;;;;5054135;28;20179;-66
2022/10/06 07:01:13;;;;;;;3.83;1.20;;;18.30;66.20;;;;;;5052923;28;20167;-66
2022/10/06 07:03:44;;;;;;;4.10;1.60;;;18.30;66.10;;;;;;5053900;28;20190;-64
2022/10/06 07:06:11;;;;;;;2.30;1.05;;;18.40;66.20;;;;;;5053653;28;20177;-64
2022/10/06 07:08:37;;;;;;;3.53;1.00;;;18.40;66.00;;;;;;5053573;28;20238;-66
2022/10/06 07:11:11;;;;;;;2.20;1.20;;;18.40;66.00;;;;;;5053701;28;20584;-65
2022/10/06 07:13:37;;;;;;;2.92;1.20;;;18.40;66.00;;;;;;5052655;28;20230;-66
2022/10/06 07:27:06;;;;;;;3.75;1.10;;;18.50;66.00;;;;;;5053168;28;20225;-67
2022/10/06 07:29:31;;;;;;;4.15;1.10;;;18.50;66.20;;;;;;5052589;28;20211;-68
2022/10/06 07:31:57;;;;;;;5.15;1.35;;;18.40;65.80;;;;;;5053327;28;20175;-67
2022/10/06 07:34:22;;;;;;;2.85;1.48;;;18.50;66.00;;;;;;5053469;28;20171;-67
2022/10/06 07:36:53;;;;;;;2.97;1.42;;;18.50;66.00;;;;;;5052678;28;20174;-67
2022/10/06 07:39:19;;;;;;;3.78;1.50;;;18.50;65.90;;;;;;5053061;28;20175;-67
2022/10/06 07:41:44;;;;;;;3.70;1.75;;;18.50;65.80;;;;;;5053133;28;20186;-68
2022/10/06 07:44:10;;;;;;;4.32;1.50;;;18.50;65.70;;;;;;5052317;28;20171;-68
2022/10/06 07:46:35;;;;;;;3.63;1.23;;;18.60;65.60;;;;;;5053353;28;20210;-67
2022/10/06 07:49:01;;;;;;;4.30;1.15;;;18.60;65.40;;;;;;5052814;28;20260;-68
2022/10/06 07:51:27;;;;;;;3.15;1.30;;;18.60;65.30;;;;;;5052366;28;20167;-67
2022/10/06 07:53:52;;;;;;;4.57;1.48;;;18.60;65.20;;;;;;5052873;28;20183;-68
2022/10/06 07:56:21;;;;;;;5.05;1.77;;;18.60;65.10;;;;;;5051849;28;20210;-69
2022/10/06 07:58:47;;;;;;;4.15;1.42;;;18.70;65.20;;;;;;5053129;28;20221;-68
2022/10/06 08:01:13;;;;;;;4.90;1.88;;;18.70;65.10;;;;;;5052815;28;20175;-68
2022/10/06 08:03:39;;;;;;;2.45;1.25;;;18.70;65.10;;;;;;5052362;28;20175;-68
2022/10/06 08:06:05;;;;;;;5.47;1.73;;;18.70;65.00;;;;;;5052892;28;20171;-67
2022/10/06 08:08:35;;;;;;;3.58;1.50;;;18.70;65.00;;;;;;5052800;28;20261;-67
2022/10/06 08:11:00;;;;;;;4.35;1.20;;;18.80;64.90;;;;;;5052017;28;20179;-68
2022/10/06 08:13:26;;;;;;;4.60;1.65;;;18.80;64.90;;;;;;5052688;28;20226;-67
2022/10/06 08:15:53;;;;;;;1.77;1.38;;;18.80;64.90;;;;;;5052821;28;20228;-67
2022/10/06 08:18:19;;;;;;;4.28;1.33;;;18.80;64.90;;;;;;5051817;28;20179;-67
2022/10/06 08:20:45;;;;;;;3.67;1.30;;;18.80;64.90;;;;;;5052460;28;20206;-67
2022/10/06 08:23:11;;;;;;;4.15;1.77;;;18.90;64.80;;;;;;5052515;28;20202;-67
2022/10/06 08:25:41;;;;;;;3.90;1.77;;;18.90;64.90;;;;;;5054920;28;20175;-68
2022/10/06 08:28:08;;;;;;;4.35;1.40;;;18.90;64.70;;;;;;5056624;28;20215;-67
2022/10/06 08:30:33;;;;;;;6.25;2.08;;;18.90;64.70;;;;;;5056728;28;20561;-70
2022/10/06 08:32:59;;;;;;;3.13;1.38;;;18.90;64.60;;;;;;5055698;28;20186;-67
2022/10/06 08:35:24;;;;;;;3.50;1.58;;;19.00;64.70;;;;;;5056749;28;20167;-67
2022/10/06 08:37:51;;;;;;;3.55;1.42;;;19.00;64.60;;;;;;5056598;28;20178;-67
2022/10/06 08:40:16;;;;;;;4.50;2.35;;;19.00;64.60;;;;;;5054242;28;20243;-67
2022/10/06 08:42:47;;;;;;;3.28;1.50;;;19.00;64.60;;;;;;5055317;28;20265;-67
2022/10/06 08:45:34;;;;;;;4.15;1.67;;;19.10;64.60;;;;;;5056048;28;20175;-68
2022/10/06 08:48:12;;;;;;;4.88;1.55;;;19.10;64.50;;;;;;5056075;28;20207;-67
2022/10/06 08:51:17;;;;;;;4.60;1.45;;;19.10;64.60;;;;;;5040208;28;20179;-68
2022/10/06 08:54:01;;;;;;;2.58;1.27;;;19.10;64.50;;;;;;5040412;28;20204;-68
2022/10/06 08:56:31;;;;;;;2.63;1.58;;;19.20;64.40;;;;;;5040646;28;20186;-67
2022/10/06 08:58:57;;;;;;;5.30;1.83;;;19.20;64.40;;;;;;5038925;28;20175;-67
2022/10/06 09:01:23;;;;;;;2.97;1.55;;;19.20;64.30;;;;;;5054050;28;20699;-67
2022/10/06 09:03:51;;;;;;;5.15;1.70;;;19.20;64.20;;;;;;5056257;28;20187;-67
2022/10/06 09:06:16;;;;;;;5.68;1.55;;;19.30;64.30;;;;;;5054859;28;20176;-67
2022/10/06 09:08:52;;;;;;;2.83;1.40;;;19.30;64.20;;;;;;5055454;28;20211;-67
2022/10/06 09:11:37;;;;;;;4.30;1.73;;;19.30;64.30;;;;;;5039104;28;20333;-68
2022/10/06 09:14:02;;;;;;;3.20;1.33;;;19.30;64.20;;;;;;5053851;28;20232;-68
2022/10/06 09:16:33;;;;;;;2.30;1.30;;;19.40;64.20;;;;;;5056025;28;20171;-67
2022/10/06 09:19:08;;;;;;;4.20;1.52;;;19.40;64.00;;;;;;5054752;28;20254;-67
2022/10/06 09:21:42;;;;;;;4.45;1.45;;;19.40;64.00;;;;;;5054984;28;20560;-67
2022/10/06 09:24:13;;;;;;;4.13;1.58;;;19.40;64.00;;;;;;5037906;28;20273;-67
2022/10/06 09:26:42;;;;;;;3.13;1.50;;;19.50;64.00;;;;;;5055219;28;20179;-67
2022/10/06 09:29:07;;;;;;;4.03;1.38;;;19.50;63.80;;;;;;5053440;28;20246;-68
2022/10/06 09:31:38;;;;;;;2.58;1.70;;;19.40;63.80;;;;;;5055641;28;20214;-68
2022/10/06 09:34:44;;;;;;;3.92;1.85;;;19.40;64.70;;;;;;5055247;28;20183;-67
2022/10/06 09:37:12;;;;;;;5.15;1.63;;;19.40;63.70;;;;;;5020714;28;20291;-67
2022/10/06 09:39:39;;;;;;;4.63;2.25;;;19.40;63.80;;;;;;5051471;28;20183;-67
2022/10/06 09:42:20;;;;;;;4.82;1.65;;;19.40;63.70;;;;;;5054543;28;20184;-67
2022/10/06 09:44:50;;;;;;;3.80;1.25;;;19.50;63.50;;;;;;5054613;28;20175;-68
2022/10/06 09:47:34;;;;;;;6.72;1.42;;;19.40;63.50;;;;;;5055059;28;20197;-67
2022/10/06 09:50:14;;;;;;;4.35;1.42;;;19.50;63.50;;;;;;5054328;28;20250;-67
2022/10/06 09:53:05;;;;;;;3.35;1.27;;;19.50;63.40;;;;;;5055385;28;20175;-68
2022/10/06 09:55:36;;;;;;;3.38;1.48;;;19.60;63.30;;;;;;5054555;28;20197;-68
2022/10/06 09:58:03;;;;;;;2.63;1.25;;;19.60;63.10;;;;;;5054370;28;20221;-67
2022/10/06 10:00:36;;;;;;;5.22;1.70;;;19.60;63.10;;;;;;5037722;28;20175;-68
2022/10/06 10:03:06;;;;;;;4.05;1.50;;;19.70;63.00;;;;;;5052930;28;20171;-67
2022/10/06 10:05:33;;;;;;;4.03;1.98;;;19.70;62.90;;;;;;5053823;28;20215;-67
2022/10/06 10:08:08;;;;;;;4.35;1.63;;;19.60;62.90;;;;;;5053426;28;20214;-67
2022/10/06 10:10:36;;;;;;;4.03;1.70;;;19.70;62.80;;;;;;5053217;28;20254;-69
2022/10/06 10:13:02;;;;;;;4.80;1.77;;;19.70;62.70;;;;;;5053199;28;20223;-68
2022/10/06 10:15:33;;;;;;;3.83;1.42;;;19.70;62.70;;;;;;5053650;28;20229;-67
2022/10/06 10:18:10;;;;;;;4.22;1.58;;;19.70;62.80;;;;;;5052605;28;20186;-67
2022/10/06 10:20:37;;;;;;;4.28;1.58;;;19.70;62.80;;;;;;5038091;28;20215;-67
2022/10/06 10:23:20;;;;;;;4.55;1.75;;;19.70;62.70;;;;;;5053364;28;20203;-67
2022/10/06 10:25:52;;;;;;;2.58;1.35;;;19.70;62.80;;;;;;5038806;28;20186;-68
2022/10/06 10:28:36;;;;;;;5.22;1.30;;;19.60;62.90;;;;;;5053096;28;20207;-67
2022/10/06 10:31:17;;;;;;;4.57;1.67;;;19.60;62.90;;;;;;5053778;28;20579;-67
2022/10/06 10:34:08;;;;;;;2.95;1.27;;;19.60;63.10;;;;;;5053523;28;20271;-67
2022/10/06 10:36:37;;;;;;;2.85;1.30;;;19.60;63.20;;;;;;5054548;28;20171;-69
2022/10/06 10:39:03;;;;;;;3.15;1.20;;;19.60;63.30;;;;;;5036193;28;20195;-68
2022/10/06 10:41:32;;;;;;;3.60;1.20;;;19.60;63.10;;;;;;5036917;28;20258;-67
2022/10/06 10:44:14;;;;;;;5.25;1.83;;;19.60;63.00;;;;;;5052776;28;20171;-67
2022/10/06 10:46:43;;;;;;;3.38;1.30;;;19.70;62.90;;;;;;5036541;28;20179;-68
2022/10/06 10:49:12;;;;;;;4.28;1.52;;;19.70;62.80;;;;;;5052393;28;20215;-67
2022/10/06 10:51:44;;;;;;;3.10;1.30;;;19.70;62.60;;;;;;5054423;28;20186;-67
2022/10/06 10:54:15;;;;;;;2.55;1.13;;;19.80;62.60;;;;;;5052318;28;20186;-68
2022/10/06 10:56:41;;;;;;;3.67;1.17;;;19.80;62.50;;;;;;5054254;28;20183;-68
2022/10/06 10:59:16;;;;;;;3.65;1.30;;;19.70;62.60;;;;;;5052007;28;20648;-68
2022/10/06 11:01:46;;;;;;;3.15;1.27;;;19.70;62.70;;;;;;5036477;28;20186;-68
2022/10/06 11:04:12;;;;;;;3.78;1.55;;;19.70;62.60;;;;;;5052627;28;20187;-67
2022/10/06 11:07:12;;;;;;;4.28;1.88;;;19.70;62.60;;;;;;5053375;28;20174;-68
2022/10/06 11:09:57;;;;;;;2.45;1.40;;;19.60;62.90;;;;;;5053827;28;20215;-68
2022/10/06 11:12:56;;;;;;;4.38;1.80;;;19.50;63.00;;;;;;5036853;28;20178;-68
2022/10/06 11:15:31;;;;;;;3.00;1.60;;;19.50;63.20;;;;;;5044955;28;20199;-68
2022/10/06 11:18:00;;;;;;;2.30;1.08;;;19.50;63.10;;;;;;5053574;28;20328;-67
2022/10/06 11:20:38;;;;;;;3.45;1.40;;;19.50;62.80;;;;;;5051695;28;20669;-67
2022/10/06 11:23:37;;;;;;;3.17;1.23;;;19.60;62.80;;;;;;5053499;28;20208;-68
2022/10/06 11:26:43;;;;;;;3.50;1.30;;;19.60;62.70;;;;;;5053383;28;20233;-68
2022/10/06 11:29:26;;;;;;;3.97;1.50;;;19.60;62.60;;;;;;5047630;28;20218;-68
2022/10/06 11:31:58;;;;;;;3.60;1.73;;;19.60;62.70;;;;;;5052242;28;20659;-68
2022/10/06 11:34:24;;;;;;;3.72;1.40;;;19.60;62.60;;;;;;5052553;28;20175;-68
2022/10/06 11:36:57;;;;;;;4.28;1.33;;;19.60;62.50;;;;;;5053334;28;20190;-68
2022/10/06 11:39:22;;;;;;;4.10;1.13;;;19.70;62.30;;;;;;5035969;28;20249;-68
2022/10/06 11:42:11;;;;;;;3.22;1.52;;;19.70;62.10;;;;;;5052651;28;20638;-67
2022/10/06 11:44:52;;;;;;;5.88;1.85;;;19.70;62.00;;;;;;5038890;28;20254;-68
2022/10/06 11:47:21;;;;;;;2.75;1.20;;;19.60;62.20;;;;;;5051587;28;20539;-67
2022/10/06 11:49:54;;;;;;;3.28;1.33;;;19.60;62.30;;;;;;5051080;28;20219;-71
2022/10/06 11:52:20;;;;;;;3.15;1.23;;;19.60;62.20;;;;;;5053033;28;20255;-69
2022/10/06 11:54:56;;;;;;;3.30;1.48;;;19.60;62.40;;;;;;5053162;28;20266;-70
2022/10/06 11:57:21;;;;;;;3.47;1.60;;;19.50;62.50;;;;;;5034919;28;20258;-69
2022/10/06 12:00:14;;;;;;;2.25;1.17;;;19.50;62.70;;;;;;5052338;28;20213;-70
2022/10/06 12:02:40;;;;;;;3.38;1.55;;;19.50;62.80;;;;;;5052269;28;20211;-69
2022/10/06 12:05:09;;;;;;;4.45;1.25;;;19.50;62.80;;;;;;5051546;28;20182;-68
2022/10/06 12:07:53;;;;;;;3.65;1.10;;;19.60;62.60;;;;;;5052950;28;20200;-69
2022/10/06 12:10:27;;;;;;;2.40;1.05;;;19.60;62.50;;;;;;5051776;28;20190;-69
2022/10/06 12:13:18;;;;;;;4.28;1.52;;;19.70;62.60;;;;;;5052876;28;20175;-69
2022/10/06 12:16:09;;;;;;;4.07;1.33;;;19.70;62.40;;;;;;5051714;28;20177;-67
2022/10/06 12:18:43;;;;;;;5.40;1.65;;;19.70;62.20;;;;;;5041236;28;20646;-67
2022/10/06 12:21:18;;;;;;;4.68;1.25;;;19.70;62.00;;;;;;5051291;28;20167;-67
2022/10/06 12:23:49;;;;;;;2.00;1.02;;;19.80;62.00;;;;;;5051822;28;20179;-66
2022/10/06 12:26:20;;;;;;;2.47;1.10;;;19.80;61.90;;;;;;5052220;28;20167;-67
2022/10/06 12:28:50;;;;;;;3.58;1.20;;;19.80;61.90;;;;;;5052078;28;20293;-67
2022/10/06 12:31:32;;;;;;;2.75;1.27;;;19.80;62.70;;;;;;5049425;28;20179;-67
2022/10/06 12:33:57;;;;;;;2.05;0.98;;;19.80;61.70;;;;;;5050914;28;20171;-66
2022/10/06 12:36:25;;;;;;;2.42;0.95;;;19.80;61.70;;;;;;5052179;28;20175;-65
2022/10/06 12:39:01;;;;;;;3.15;0.93;;;19.80;61.80;;;;;;5051366;28;20175;-65
2022/10/06 12:42:02;;;;;;;2.90;1.17;;;19.80;61.70;;;;;;5052413;28;20748;-67
2022/10/06 12:44:41;;;;;;;3.05;1.02;;;19.80;61.60;;;;;;5045496;28;20539;-65
2022/10/06 12:47:13;;;;;;;3.17;1.20;;;19.70;61.80;;;;;;5052460;28;20556;-69
2022/10/06 12:49:57;;;;;;;2.75;1.33;;;19.70;61.80;;;;;;5051199;28;20215;-66
2022/10/06 12:52:46;;;;;;;3.38;1.00;;;19.70;61.90;;;;;;5035609;28;20779;-67
2022/10/06 12:55:39;;;;;;;4.30;1.55;;;19.70;61.80;;;;;;5051001;28;20176;-70
2022/10/06 12:58:11;;;;;;;1.83;0.95;;;19.80;61.60;;;;;;5035615;28;20175;-71
2022/10/06 13:00:38;;;;;;;5.75;1.13;;;19.80;61.50;;;;;;5050911;28;20183;-70
2022/10/06 13:03:05;;;;;;;2.92;1.02;;;19.90;61.30;;;;;;5060360;28;20172;-70
2022/10/06 13:05:33;;;;;;;3.72;1.00;;;20.00;61.10;;;;;;5043306;28;20231;-69
2022/10/06 13:08:03;;;;;;;2.70;0.95;;;20.10;61.10;;;;;;5071574;28;20182;-70
2022/10/06 13:10:29;;;;;;;5.82;1.10;;;20.20;61.10;;;;;;5058637;28;20183;-71
2022/10/06 13:12:56;;;;;;;3.75;1.08;;;20.20;60.90;;;;;;5055103;28;20258;-70